createdAt,value
2023-03-12T00:00:55.644Z,51.291229
2023-03-12T00:01:55.637Z,51.291199
2023-03-12T00:02:56.753Z,51.291199
2023-03-12T00:03:55.639Z,51.291199
2023-03-12T00:04:55.596Z,51.291252
2023-03-12T00:05:55.579Z,51.291210
2023-03-12T00:06:55.572Z,51.291214
2023-03-12T00:07:55.577Z,51.291210
2023-03-12T00:08:56.430Z,51.291187
2023-03-12T00:09:55.532Z,51.291218
2023-03-12T00:10:55.539Z,51.291191
2023-03-12T00:11:55.541Z,51.291183
2023-03-12T00:12:55.502Z,51.291126
2023-03-12T00:13:55.553Z,51.291164
2023-03-12T00:14:55.492Z,51.291233
2023-03-12T00:15:55.613Z,51.291195
2023-03-12T00:16:55.468Z,51.291149
2023-03-12T00:17:55.527Z,51.291187
2023-03-12T00:18:55.428Z,51.291245
2023-03-12T00:19:55.483Z,51.291180
2023-03-12T00:20:55.430Z,51.291237
2023-03-12T00:21:55.421Z,51.291149
2023-03-12T00:22:55.400Z,51.291271
2023-03-12T00:23:55.370Z,51.291176
2023-03-12T00:24:56.257Z,51.291298
2023-03-12T00:25:55.870Z,51.291302
2023-03-12T00:26:55.334Z,51.291218
2023-03-12T00:27:55.333Z,51.291142
2023-03-12T00:28:55.321Z,51.291073
2023-03-12T00:29:55.309Z,51.291145
2023-03-12T00:30:57.179Z,51.291168
2023-03-12T00:31:55.279Z,51.291180
2023-03-12T00:32:55.297Z,51.291225
2023-03-12T00:33:55.258Z,51.291260
2023-03-12T00:34:55.680Z,51.291294
2023-03-12T00:35:55.318Z,51.291203
2023-03-12T00:36:55.232Z,51.291145
2023-03-12T00:37:55.203Z,51.291073
2023-03-12T00:38:55.228Z,51.291172
2023-03-12T00:39:55.213Z,51.291035
2023-03-12T00:40:55.217Z,51.291199
2023-03-12T00:41:55.231Z,51.291191
2023-03-12T00:42:55.167Z,51.291275
2023-03-12T00:43:55.129Z,51.291245
2023-03-12T00:44:55.145Z,51.291298
2023-03-12T00:45:55.128Z,51.291218
2023-03-12T00:46:55.203Z,51.291210
2023-03-12T00:47:56.093Z,51.291172
2023-03-12T00:48:55.091Z,51.291161
2023-03-12T00:49:55.698Z,51.291336
2023-03-12T00:50:55.064Z,51.291431
2023-03-12T00:51:55.111Z,51.291309
2023-03-12T00:52:55.069Z,51.291264
2023-03-12T00:53:55.445Z,51.291302
2023-03-12T00:54:55.010Z,51.291424
2023-03-12T00:55:55.018Z,51.291233
2023-03-12T00:56:54.990Z,51.291203
2023-03-12T00:57:55.023Z,51.291275
2023-03-12T00:58:54.974Z,51.291225
2023-03-12T00:59:54.954Z,51.291153
2023-03-12T01:00:55.046Z,51.291225
2023-03-12T01:01:54.932Z,51.291183
2023-03-12T01:02:54.946Z,51.291275
2023-03-12T01:03:54.981Z,51.291195
2023-03-12T01:04:54.926Z,51.291195
2023-03-12T01:05:54.913Z,51.291275
2023-03-12T01:06:54.895Z,51.291264
2023-03-12T01:07:55.707Z,51.291134
2023-03-12T01:08:55.143Z,51.291088
2023-03-12T01:09:54.877Z,51.291107
2023-03-12T01:10:54.975Z,51.291241
2023-03-12T01:11:54.837Z,51.291309
2023-03-12T01:12:54.838Z,51.291214
2023-03-12T01:13:54.830Z,51.291180
2023-03-12T01:14:54.855Z,51.291069
2023-03-12T01:15:54.798Z,51.291275
2023-03-12T01:16:54.778Z,51.291164
2023-03-12T01:17:54.752Z,51.291241
2023-03-12T01:18:54.744Z,51.291180
2023-03-12T01:19:54.766Z,51.291290
2023-03-12T01:20:55.578Z,51.291290
2023-03-12T01:21:54.916Z,51.291336
2023-03-12T01:22:54.715Z,51.291248
2023-03-12T01:23:54.684Z,51.291252
2023-03-12T01:24:54.684Z,51.291313
2023-03-12T01:25:54.730Z,51.291290
2023-03-12T01:26:54.662Z,51.291054
2023-03-12T01:27:54.654Z,51.291103
2023-03-12T01:28:54.652Z,51.291122
2023-03-12T01:29:55.362Z,51.291168
2023-03-12T01:30:54.719Z,51.290985
2023-03-12T01:31:54.681Z,51.290966
2023-03-12T01:32:54.604Z,51.291199
2023-03-12T01:33:54.583Z,51.291428
2023-03-12T01:34:54.575Z,51.291260
2023-03-12T01:35:54.655Z,51.291264
2023-03-12T01:36:54.572Z,51.291229
2023-03-12T01:37:54.545Z,51.291248
2023-03-12T01:38:55.525Z,51.291252
2023-03-12T01:39:54.513Z,51.291191
2023-03-12T01:40:54.501Z,51.291256
2023-03-12T01:41:54.591Z,51.291214
2023-03-12T01:42:54.491Z,51.291267
2023-03-12T01:43:54.500Z,51.291233
2023-03-12T01:44:54.492Z,51.291210
2023-03-12T01:45:54.484Z,51.291271
2023-03-12T01:46:54.439Z,51.291271
2023-03-12T01:47:54.425Z,51.291340
2023-03-12T01:48:54.425Z,51.291351
2023-03-12T01:49:54.401Z,51.291271
2023-03-12T01:50:54.373Z,51.291225
2023-03-12T01:51:54.386Z,51.291431
2023-03-12T01:52:54.373Z,51.291225
2023-03-12T01:53:54.355Z,51.291256
2023-03-12T01:54:54.350Z,51.291245
2023-03-12T01:55:54.314Z,51.291203
2023-03-12T01:56:54.302Z,51.291218
2023-03-12T01:57:54.334Z,51.291206
2023-03-12T01:58:54.281Z,51.291317
2023-03-12T01:59:54.275Z,51.291260
2023-03-12T02:00:54.321Z,51.291290
2023-03-12T02:01:54.252Z,51.291306
2023-03-12T02:02:54.255Z,51.291321
2023-03-12T02:03:54.282Z,51.291313
2023-03-12T02:04:54.215Z,51.291294
2023-03-12T02:05:54.215Z,51.291409
2023-03-12T02:06:54.221Z,51.291634
2023-03-12T02:07:54.234Z,51.291111
2023-03-12T02:08:54.175Z,51.290714
2023-03-12T02:09:54.176Z,51.291252
2023-03-12T02:10:54.157Z,51.291222
2023-03-12T02:11:54.139Z,51.291245
2023-03-12T02:12:54.400Z,51.291359
2023-03-12T02:13:54.108Z,51.291359
2023-03-12T02:14:54.113Z,51.291168
2023-03-12T02:15:54.095Z,51.291256
2023-03-12T02:16:54.147Z,51.291168
2023-03-12T02:17:54.122Z,51.291168
2023-03-12T02:18:54.080Z,51.291317
2023-03-12T02:19:54.069Z,51.291031
2023-03-12T02:20:54.038Z,51.291153
2023-03-12T02:21:54.029Z,51.290928
2023-03-12T02:22:54.445Z,51.290993
2023-03-12T02:23:54.036Z,51.291145
2023-03-12T02:24:54.025Z,51.290977
2023-03-12T02:25:54.021Z,51.290897
2023-03-12T02:26:53.969Z,51.290897
2023-03-12T02:27:53.963Z,51.290897
2023-03-12T02:28:53.986Z,51.290943
2023-03-12T02:29:53.937Z,51.290733
2023-03-12T02:30:53.929Z,51.290733
2023-03-12T02:31:53.935Z,51.290733
2023-03-12T02:32:53.918Z,51.290974
2023-03-12T02:33:54.035Z,51.291042
2023-03-12T02:34:53.902Z,51.291466
2023-03-12T02:35:53.901Z,51.291725
2023-03-12T02:36:53.873Z,51.291584
2023-03-12T02:37:53.871Z,51.291283
2023-03-12T02:38:53.906Z,51.291210
2023-03-12T02:39:53.847Z,51.291180
2023-03-12T02:40:53.844Z,51.291374
2023-03-12T02:41:54.022Z,51.291229
2023-03-12T02:42:55.391Z,51.291271
2023-03-12T02:43:53.837Z,51.291359
2023-03-12T02:44:53.837Z,51.291157
2023-03-12T02:45:53.777Z,51.290981
2023-03-12T02:46:53.820Z,51.291000
2023-03-12T02:47:54.740Z,51.291309
2023-03-12T02:48:53.737Z,51.291252
2023-03-12T02:49:53.747Z,51.291214
2023-03-12T02:50:53.700Z,51.291275
2023-03-12T02:51:53.710Z,51.291306
2023-03-12T02:52:53.778Z,51.291103
2023-03-12T02:53:53.668Z,51.291103
2023-03-12T02:54:53.709Z,51.291126
2023-03-12T02:55:53.648Z,51.291260
2023-03-12T02:56:53.664Z,51.291229
2023-03-12T02:57:54.138Z,51.291294
2023-03-12T02:58:53.659Z,51.291340
2023-03-12T02:59:54.329Z,51.291252
2023-03-12T03:00:54.677Z,51.291290
2023-03-12T03:01:53.730Z,51.291306
2023-03-12T03:02:53.557Z,51.291225
2023-03-12T03:03:53.591Z,51.291260
2023-03-12T03:04:53.551Z,51.291248
2023-03-12T03:05:53.580Z,51.291195
2023-03-12T03:06:53.524Z,51.291290
2023-03-12T03:07:53.520Z,51.291233
2023-03-12T03:08:53.520Z,51.291157
2023-03-12T03:09:54.560Z,51.291119
2023-03-12T03:10:53.524Z,51.291225
2023-03-12T03:11:53.483Z,51.291248
2023-03-12T03:12:53.469Z,51.291271
2023-03-12T03:13:53.458Z,51.291119
2023-03-12T03:14:53.461Z,51.291275
2023-03-12T03:15:53.466Z,51.291164
2023-03-12T03:16:53.420Z,51.291222
2023-03-12T03:17:53.425Z,51.291218
2023-03-12T03:18:53.760Z,51.291218
2023-03-12T03:19:53.698Z,51.291183
2023-03-12T03:20:53.423Z,51.291176
2023-03-12T03:21:53.372Z,51.291161
2023-03-12T03:22:54.067Z,51.291164
2023-03-12T03:23:53.361Z,51.291229
2023-03-12T03:24:53.506Z,51.291191
2023-03-12T03:25:53.324Z,51.291229
2023-03-12T03:26:53.308Z,51.291168
2023-03-12T03:27:53.306Z,51.291237
2023-03-12T03:28:53.483Z,51.291210
2023-03-12T03:29:53.305Z,51.291187
2023-03-12T03:30:53.309Z,51.291164
2023-03-12T03:31:53.291Z,51.291130
2023-03-12T03:32:53.348Z,51.291275
2023-03-12T03:33:53.229Z,51.291252
2023-03-12T03:34:53.241Z,51.291172
2023-03-12T03:35:53.270Z,51.291191
2023-03-12T03:36:53.384Z,51.291241
2023-03-12T03:37:53.192Z,51.291248
2023-03-12T03:38:53.168Z,51.291157
2023-03-12T03:39:54.191Z,51.291142
2023-03-12T03:40:53.169Z,51.291084
2023-03-12T03:41:53.245Z,51.291153
2023-03-12T03:42:53.118Z,51.291122
2023-03-12T03:43:53.100Z,51.291061
2023-03-12T03:44:53.106Z,51.291145
2023-03-12T03:45:53.218Z,51.291191
2023-03-12T03:46:53.086Z,51.291214
2023-03-12T03:47:54.518Z,51.291241
2023-03-12T03:48:53.056Z,51.291195
2023-03-12T03:49:53.062Z,51.291161
2023-03-12T03:50:53.107Z,51.291172
2023-03-12T03:51:53.010Z,51.291241
2023-03-12T03:52:53.161Z,51.291157
2023-03-12T03:53:53.006Z,51.291183
2023-03-12T03:54:52.975Z,51.291161
2023-03-12T03:55:53.010Z,51.291122
2023-03-12T03:56:53.004Z,51.291245
2023-03-12T03:57:52.962Z,51.291283
2023-03-12T03:58:52.943Z,51.291290
2023-03-12T03:59:52.929Z,51.291321
2023-03-12T04:00:52.930Z,51.291271
2023-03-12T04:01:52.957Z,51.291195
2023-03-12T04:02:52.936Z,51.291183
2023-03-12T04:03:53.206Z,51.291214
2023-03-12T04:04:52.932Z,51.291260
2023-03-12T04:05:52.968Z,51.291138
2023-03-12T04:06:53.133Z,51.291126
2023-03-12T04:07:52.879Z,51.291168
2023-03-12T04:08:52.931Z,51.291248
2023-03-12T04:09:52.819Z,51.291130
2023-03-12T04:10:53.757Z,51.291218
2023-03-12T04:11:52.827Z,51.291222
2023-03-12T04:12:52.818Z,51.291264
2023-03-12T04:13:52.795Z,51.291214
2023-03-12T04:14:53.347Z,51.291241
2023-03-12T04:15:52.776Z,51.291328
2023-03-12T04:16:52.741Z,51.291241
2023-03-12T04:17:52.815Z,51.291126
2023-03-12T04:18:52.727Z,51.291229
2023-03-12T04:19:52.711Z,51.291092
2023-03-12T04:20:53.695Z,51.291210
2023-03-12T04:21:53.641Z,51.291126
2023-03-12T04:22:52.655Z,51.291073
2023-03-12T04:23:53.203Z,51.291157
2023-03-12T04:24:52.663Z,51.291176
2023-03-12T04:25:52.629Z,51.291039
2023-03-12T04:26:52.623Z,51.290974
2023-03-12T04:27:52.622Z,51.290573
2023-03-12T04:28:52.647Z,51.290821
2023-03-12T04:29:52.603Z,51.291019
2023-03-12T04:30:52.631Z,51.291012
2023-03-12T04:31:52.575Z,51.290852
2023-03-12T04:32:52.652Z,51.291229
2023-03-12T04:33:52.594Z,51.291599
2023-03-12T04:34:52.532Z,51.291439
2023-03-12T04:35:52.581Z,51.291466
2023-03-12T04:36:52.532Z,51.291328
2023-03-12T04:37:52.513Z,51.291691
2023-03-12T04:38:52.485Z,51.291603
2023-03-12T04:39:52.539Z,51.291504
2023-03-12T04:40:52.517Z,51.291763
2023-03-12T04:41:52.447Z,51.291870
2023-03-12T04:42:52.448Z,51.292305
2023-03-12T04:43:52.443Z,51.291687
2023-03-12T04:44:52.465Z,51.291683
2023-03-12T04:45:52.420Z,51.291615
2023-03-12T04:46:52.462Z,51.291718
2023-03-12T04:47:52.389Z,51.291592
2023-03-12T04:48:52.384Z,51.291592
2023-03-12T04:49:52.359Z,51.291336
2023-03-12T04:50:52.377Z,51.291378
2023-03-12T04:51:52.356Z,51.291336
2023-03-12T04:52:52.345Z,51.291428
2023-03-12T04:53:52.332Z,51.291374
2023-03-12T04:54:52.336Z,51.291470
2023-03-12T04:55:52.337Z,51.291405
2023-03-12T04:56:52.283Z,51.291374
2023-03-12T04:57:52.290Z,51.291985
2023-03-12T04:58:52.259Z,51.291985
2023-03-12T04:59:52.274Z,51.291985
2023-03-12T05:00:52.270Z,51.291985
2023-03-12T05:01:52.238Z,51.291592
2023-03-12T05:02:52.262Z,51.291260
2023-03-12T05:03:52.277Z,51.291260
2023-03-12T05:04:52.226Z,51.291260
2023-03-12T05:05:52.218Z,51.291218
2023-03-12T05:06:52.193Z,51.291218
2023-03-12T05:07:52.160Z,51.291389
2023-03-12T05:08:52.159Z,51.291595
2023-03-12T05:09:53.184Z,51.291595
2023-03-12T05:10:52.140Z,51.291595
2023-03-12T05:11:52.130Z,51.291595
2023-03-12T05:12:52.100Z,51.291595
2023-03-12T05:13:52.096Z,51.291595
2023-03-12T05:14:52.092Z,51.291248
2023-03-12T05:15:52.143Z,51.291149
2023-03-12T05:16:52.076Z,51.291126
2023-03-12T05:17:52.058Z,51.290977
2023-03-12T05:18:52.818Z,51.291115
2023-03-12T05:19:52.042Z,51.291279
2023-03-12T05:20:52.067Z,51.291355
2023-03-12T05:21:52.014Z,51.291275
2023-03-12T05:22:52.017Z,51.291393
2023-03-12T05:23:51.991Z,51.291275
2023-03-12T05:24:51.978Z,51.291401
2023-03-12T05:25:51.961Z,51.291256
2023-03-12T05:26:51.984Z,51.291245
2023-03-12T05:27:51.951Z,51.291302
2023-03-12T05:28:51.930Z,51.291111
2023-03-12T05:29:51.929Z,51.291439
2023-03-12T05:30:51.920Z,51.291298
2023-03-12T05:31:51.971Z,51.291286
2023-03-12T05:32:51.939Z,51.291309
2023-03-12T05:33:53.024Z,51.291225
2023-03-12T05:34:51.865Z,51.291233
2023-03-12T05:35:51.895Z,51.291214
2023-03-12T05:36:51.891Z,51.291317
2023-03-12T05:37:51.833Z,51.291363
2023-03-12T05:38:51.844Z,51.291321
2023-03-12T05:39:51.824Z,51.291222
2023-03-12T05:40:51.797Z,51.291283
2023-03-12T05:41:51.802Z,51.291237
2023-03-12T05:42:51.815Z,51.291168
2023-03-12T05:43:51.761Z,51.291122
2023-03-12T05:44:51.768Z,51.291077
2023-03-12T05:45:51.770Z,51.291191
2023-03-12T05:46:51.731Z,51.291271
2023-03-12T05:47:51.765Z,51.291237
2023-03-12T05:48:51.718Z,51.291256
2023-03-12T05:49:51.710Z,51.291344
2023-03-12T05:50:51.709Z,51.291309
2023-03-12T05:51:51.678Z,51.291279
2023-03-12T05:52:51.666Z,51.291191
2023-03-12T05:53:51.687Z,51.291183
2023-03-12T05:54:51.661Z,51.291245
2023-03-12T05:55:51.638Z,51.291157
2023-03-12T05:56:51.631Z,51.291145
2023-03-12T05:57:51.605Z,51.291363
2023-03-12T05:58:51.642Z,51.291279
2023-03-12T05:59:51.610Z,51.291222
2023-03-12T06:00:51.594Z,51.291252
2023-03-12T06:01:51.592Z,51.291229
2023-03-12T06:02:51.573Z,51.291275
2023-03-12T06:03:51.592Z,51.291313
2023-03-12T06:04:51.528Z,51.291340
2023-03-12T06:05:51.536Z,51.291252
2023-03-12T06:06:51.507Z,51.291340
2023-03-12T06:07:51.509Z,51.291462
2023-03-12T06:08:51.503Z,51.291126
2023-03-12T06:09:51.500Z,51.291313
2023-03-12T06:10:51.471Z,51.291279
2023-03-12T06:11:51.473Z,51.291225
2023-03-12T06:12:51.441Z,51.291241
2023-03-12T06:13:51.453Z,51.291103
2023-03-12T06:14:51.471Z,51.291294
2023-03-12T06:15:51.405Z,51.291241
2023-03-12T06:16:51.445Z,51.291180
2023-03-12T06:17:51.399Z,51.291161
2023-03-12T06:18:51.378Z,51.291214
2023-03-12T06:19:51.403Z,51.291145
2023-03-12T06:20:51.371Z,51.291103
2023-03-12T06:21:51.350Z,51.291275
2023-03-12T06:22:51.337Z,51.291290
2023-03-12T06:23:51.333Z,51.291412
2023-03-12T06:24:51.324Z,51.291039
2023-03-12T06:25:51.342Z,51.289928
2023-03-12T06:26:51.303Z,51.289158
2023-03-12T06:27:51.276Z,51.290775
2023-03-12T06:28:51.271Z,51.290947
2023-03-12T06:29:51.259Z,51.291237
2023-03-12T06:30:51.288Z,51.291378
2023-03-12T06:31:51.285Z,51.291294
2023-03-12T06:32:51.272Z,51.291210
2023-03-12T06:33:51.217Z,51.291302
2023-03-12T06:34:51.201Z,51.291279
2023-03-12T06:35:51.236Z,51.291325
2023-03-12T06:36:51.223Z,51.291370
2023-03-12T06:37:51.188Z,51.291149
2023-03-12T06:38:51.152Z,51.291088
2023-03-12T06:39:51.151Z,51.290989
2023-03-12T06:40:51.146Z,51.291191
2023-03-12T06:41:51.163Z,51.291168
2023-03-12T06:42:51.107Z,51.291210
2023-03-12T06:43:51.111Z,51.291031
2023-03-12T06:44:51.196Z,51.290939
2023-03-12T06:45:51.078Z,51.291107
2023-03-12T06:46:51.104Z,51.290901
2023-03-12T06:47:51.064Z,51.291042
2023-03-12T06:48:51.156Z,51.291027
2023-03-12T06:49:51.145Z,51.291122
2023-03-12T06:50:51.015Z,51.291080
2023-03-12T06:51:51.008Z,51.291122
2023-03-12T06:52:51.013Z,51.291088
2023-03-12T06:53:50.991Z,51.291019
2023-03-12T06:54:50.969Z,51.291061
2023-03-12T06:55:50.969Z,51.291142
2023-03-12T06:56:50.962Z,51.291061
2023-03-12T06:57:50.974Z,51.291225
2023-03-12T06:58:50.939Z,51.291168
2023-03-12T06:59:50.914Z,51.291080
2023-03-12T07:00:50.916Z,51.291088
2023-03-12T07:01:50.951Z,51.291080
2023-03-12T07:02:50.929Z,51.291119
2023-03-12T07:03:50.886Z,51.291111
2023-03-12T07:04:50.890Z,51.291122
2023-03-12T07:05:50.874Z,51.291138
2023-03-12T07:06:50.856Z,51.291157
2023-03-12T07:07:50.837Z,51.291115
2023-03-12T07:08:51.156Z,51.291153
2023-03-12T07:09:50.822Z,51.291187
2023-03-12T07:10:50.793Z,51.291191
2023-03-12T07:11:50.810Z,51.291180
2023-03-12T07:12:50.797Z,51.291176
2023-03-12T07:13:50.800Z,51.291142
2023-03-12T07:14:50.752Z,51.291183
2023-03-12T07:15:50.782Z,51.291206
2023-03-12T07:16:50.731Z,51.291229
2023-03-12T07:17:50.988Z,51.291210
2023-03-12T07:18:50.748Z,51.291172
2023-03-12T07:19:50.692Z,51.291210
2023-03-12T07:20:50.686Z,51.291325
2023-03-12T07:21:50.681Z,51.291405
2023-03-12T07:22:50.652Z,51.291302
2023-03-12T07:23:50.641Z,51.291245
2023-03-12T07:24:50.671Z,51.291195
2023-03-12T07:25:50.633Z,51.291218
2023-03-12T07:26:50.604Z,51.291496
2023-03-12T07:27:50.609Z,51.291489
2023-03-12T07:28:50.578Z,51.291374
2023-03-12T07:29:50.610Z,51.291283
2023-03-12T07:30:50.605Z,51.291267
2023-03-12T07:31:50.551Z,51.291355
2023-03-12T07:32:50.602Z,51.291218
2023-03-12T07:33:50.618Z,51.291180
2023-03-12T07:34:50.529Z,51.291302
2023-03-12T07:35:51.913Z,51.291256
2023-03-12T07:36:50.722Z,51.291256
2023-03-12T07:37:50.531Z,51.291451
2023-03-12T07:38:50.479Z,51.291332
2023-03-12T07:39:50.504Z,51.291332
2023-03-12T07:40:50.505Z,51.291332
2023-03-12T07:41:50.493Z,51.290989
2023-03-12T07:42:50.520Z,51.291065
2023-03-12T07:43:50.454Z,51.291107
2023-03-12T07:44:50.643Z,51.291157
2023-03-12T07:45:50.431Z,51.291225
2023-03-12T07:46:50.465Z,51.291111
2023-03-12T07:47:50.491Z,51.291054
2023-03-12T07:48:50.835Z,51.291138
2023-03-12T07:49:50.400Z,51.291008
2023-03-12T07:50:50.870Z,51.291119
2023-03-12T07:51:50.400Z,51.291325
2023-03-12T07:52:50.310Z,51.291069
2023-03-12T07:53:50.489Z,51.291206
2023-03-12T07:54:50.350Z,51.291119
2023-03-12T07:55:50.459Z,51.291164
2023-03-12T07:56:50.788Z,51.291122
2023-03-12T07:57:50.360Z,51.291370
2023-03-12T07:58:50.373Z,51.291168
